createdAt,value
2023-02-05T00:00:21.646Z,-1.75
2023-02-05T00:02:48.411Z,-1.82
2023-02-05T00:05:15.406Z,-1.71
2023-02-05T00:10:08.206Z,-1.86
2023-02-05T00:12:34.949Z,-1.84
2023-02-05T00:15:01.710Z,-1.96
2023-02-05T00:17:28.829Z,-1.94
2023-02-05T00:19:55.776Z,-1.97
2023-02-05T00:22:22.856Z,-2.05
2023-02-05T00:24:50.280Z,-2.06
2023-02-05T00:27:17.552Z,-2.00
2023-02-05T00:29:44.239Z,-2.11
2023-02-05T00:32:11.564Z,-2.13
2023-02-05T00:34:38.236Z,-2.15
2023-02-05T00:37:04.891Z,-2.17
2023-02-05T00:39:31.556Z,-2.05
2023-02-05T00:42:01.793Z,-1.93
2023-02-05T00:44:28.591Z,-2.14
2023-02-05T00:46:55.450Z,-2.28
2023-02-05T00:49:22.124Z,-2.31
2023-02-05T00:51:48.781Z,-2.27
2023-02-05T00:54:15.571Z,-2.17
2023-02-05T00:56:46.467Z,-2.22
2023-02-05T00:59:13.202Z,-2.38
2023-02-05T01:01:40.083Z,-2.40
2023-02-05T01:04:06.860Z,-2.20
2023-02-05T01:06:33.560Z,-2.19
2023-02-05T01:09:00.235Z,-2.21
2023-02-05T01:11:26.906Z,-2.05
2023-02-05T01:13:53.581Z,-2.03
2023-02-05T01:16:20.255Z,-2.19
2023-02-05T01:18:46.919Z,-2.31
2023-02-05T01:21:13.643Z,-2.27
2023-02-05T01:23:40.577Z,-2.46
2023-02-05T01:26:07.293Z,-2.46
2023-02-05T01:28:34.016Z,-2.33
2023-02-05T01:31:00.820Z,-2.49
2023-02-05T01:33:27.545Z,-2.49
2023-02-05T01:35:54.230Z,-2.49
2023-02-05T01:38:21.074Z,-2.65
2023-02-05T01:40:47.885Z,-2.57
2023-02-05T01:43:18.207Z,-2.57
2023-02-05T01:45:57.982Z,-2.61
2023-02-05T01:48:29.671Z,-2.60
2023-02-05T01:51:02.219Z,-2.54
2023-02-05T01:53:33.769Z,-2.46
2023-02-05T01:56:04.488Z,-2.58
2023-02-05T01:58:36.093Z,-2.34
2023-02-05T02:01:02.860Z,-2.57
2023-02-05T02:03:31.583Z,-2.58
2023-02-05T02:05:58.649Z,-2.51
2023-02-05T02:08:25.960Z,-2.68
2023-02-05T02:10:57.073Z,-2.57
2023-02-05T02:13:27.274Z,-2.43
2023-02-05T02:15:55.362Z,-2.72
2023-02-05T02:18:28.820Z,-2.47
2023-02-05T02:21:16.644Z,-2.58
2023-02-05T02:24:01.315Z,-2.59
2023-02-05T02:26:42.366Z,-2.66
2023-02-05T02:29:18.417Z,-2.60
2023-02-05T02:31:58.752Z,-2.59
2023-02-05T02:37:12.797Z,-2.59
2023-02-05T02:39:43.362Z,-2.52
2023-02-05T02:42:25.155Z,-2.39
2023-02-05T02:45:00.249Z,-2.55
2023-02-05T02:47:33.620Z,-2.43
2023-02-05T02:50:07.112Z,-2.63
2023-02-05T02:52:37.778Z,-2.61
2023-02-05T02:55:09.663Z,-2.71
2023-02-05T02:57:40.095Z,-2.58
2023-02-05T03:00:13.607Z,-2.52
2023-02-05T03:02:44.371Z,-2.60
2023-02-05T03:05:18.554Z,-2.58
2023-02-05T03:07:50.641Z,-2.57
2023-02-05T03:10:26.548Z,-2.76
2023-02-05T03:12:55.505Z,-2.65
2023-02-05T03:15:23.045Z,-2.60
2023-02-05T03:17:52.382Z,-2.70
2023-02-05T03:20:37.289Z,-2.76
2023-02-05T03:23:03.980Z,-2.80
2023-02-05T03:25:30.905Z,-2.78
2023-02-05T03:27:58.842Z,-2.70
2023-02-05T03:30:33.239Z,-2.69
2023-02-05T03:33:19.173Z,-2.78
2023-02-05T03:36:15.217Z,-2.84
2023-02-05T03:38:43.901Z,-2.87
2023-02-05T03:44:15.673Z,-2.94
2023-02-05T03:46:49.347Z,-2.76
2023-02-05T03:49:43.751Z,-2.99
2023-02-05T03:52:22.696Z,-3.00
2023-02-05T03:54:58.374Z,-3.04
2023-02-05T03:57:43.937Z,-3.02
2023-02-05T04:00:11.958Z,-2.85
2023-02-05T04:02:38.764Z,-2.88
2023-02-05T04:05:09.225Z,-2.76
2023-02-05T04:07:36.086Z,-2.73
2023-02-05T04:10:02.875Z,-2.85
2023-02-05T04:12:33.205Z,-2.70
2023-02-05T04:15:00.140Z,-2.87
2023-02-05T04:17:27.038Z,-2.55
2023-02-05T04:19:53.803Z,-2.64
2023-02-05T04:22:20.502Z,-2.80
2023-02-05T04:24:47.183Z,-2.72
2023-02-05T04:27:15.842Z,-2.63
2023-02-05T04:29:43.381Z,-2.53
2023-02-05T04:32:10.038Z,-2.53
2023-02-05T04:34:36.717Z,-2.53
2023-02-05T04:37:03.609Z,-2.66
2023-02-05T04:39:30.392Z,-2.74
2023-02-05T04:41:57.152Z,-2.44
2023-02-05T04:44:24.091Z,-2.39
2023-02-05T04:46:58.670Z,-2.31
2023-02-05T04:49:25.872Z,-2.49
2023-02-05T04:51:52.734Z,-2.49
2023-02-05T04:54:19.509Z,-2.38
2023-02-05T04:56:49.612Z,-2.41
2023-02-05T04:59:16.430Z,-2.31
2023-02-05T05:01:43.140Z,-2.47
2023-02-05T05:04:10.068Z,-2.49
2023-02-05T05:06:36.742Z,-2.40
2023-02-05T05:09:03.505Z,-2.46
2023-02-05T05:11:30.312Z,-2.48
2023-02-05T05:13:58.059Z,-2.25
2023-02-05T05:16:25.000Z,-2.30
2023-02-05T05:18:53.251Z,-2.21
2023-02-05T05:21:20.027Z,-2.14
2023-02-05T05:23:46.731Z,-2.08
2023-02-05T05:26:13.807Z,-2.16
2023-02-05T05:28:40.559Z,-2.01
2023-02-05T05:31:21.863Z,-2.06
2023-02-05T05:33:48.955Z,-2.11
2023-02-05T05:36:16.352Z,-2.00
2023-02-05T05:38:43.098Z,-2.12
2023-02-05T05:41:38.446Z,-2.00
2023-02-05T05:44:05.489Z,-1.99
2023-02-05T05:46:35.570Z,-2.09
2023-02-05T05:49:03.774Z,-2.17
2023-02-05T05:51:32.797Z,-2.02
2023-02-05T05:53:59.637Z,-2.02
2023-02-05T05:56:26.384Z,-2.11
2023-02-05T05:58:53.232Z,-2.02
2023-02-05T06:01:22.349Z,-2.00
2023-02-05T06:03:49.867Z,-2.01
2023-02-05T06:06:16.717Z,-2.04
2023-02-05T06:08:43.466Z,-1.97
2023-02-05T06:11:10.652Z,-1.80
2023-02-05T06:13:38.492Z,-1.84
2023-02-05T06:16:09.260Z,-1.86
2023-02-05T06:18:36.411Z,-1.77
2023-02-05T06:21:13.712Z,-1.86
2023-02-05T06:23:40.368Z,-1.81
2023-02-05T06:26:07.148Z,-1.84
2023-02-05T06:28:33.891Z,-1.62
2023-02-05T06:31:00.940Z,-1.59
2023-02-05T06:33:27.649Z,-1.76
2023-02-05T06:35:54.836Z,-1.71
2023-02-05T06:38:21.580Z,-1.61
2023-02-05T06:40:49.084Z,-1.43
2023-02-05T06:43:15.948Z,-1.46
2023-02-05T06:45:43.450Z,-1.32
2023-02-05T06:48:10.225Z,-1.63
2023-02-05T06:50:36.956Z,-1.46
2023-02-05T06:53:07.202Z,-1.43
2023-02-05T06:55:34.352Z,-1.50
2023-02-05T06:58:01.298Z,-1.48
2023-02-05T07:00:28.111Z,-1.47
2023-02-05T07:02:55.462Z,-1.45
2023-02-05T07:05:22.286Z,-1.43
2023-02-05T07:07:49.935Z,-1.35
2023-02-05T07:10:16.946Z,-1.23
2023-02-05T07:12:43.933Z,-1.33
2023-02-05T07:15:13.623Z,-1.28
2023-02-05T07:17:40.442Z,-1.23
2023-02-05T07:20:07.870Z,-1.09
2023-02-05T07:22:34.667Z,-1.00
2023-02-05T07:25:04.929Z,-0.97
2023-02-05T07:27:31.700Z,-0.79
2023-02-05T07:29:58.649Z,-0.78
2023-02-05T07:32:25.749Z,-0.71
2023-02-05T07:34:52.522Z,-0.87
2023-02-05T07:37:21.333Z,-0.99
2023-02-05T07:39:48.734Z,-0.88
2023-02-05T07:42:15.541Z,-0.99
2023-02-05T07:47:07.841Z,-1.08
2023-02-05T07:49:34.486Z,-0.92
2023-02-05T07:52:01.256Z,-0.96
2023-02-05T07:54:27.908Z,-0.83
2023-02-05T07:56:55.840Z,-0.98
2023-02-05T07:59:22.601Z,-0.79
2023-02-05T08:01:49.296Z,-0.75
2023-02-05T08:04:16.101Z,-0.71
2023-02-05T08:06:43.928Z,-0.72
2023-02-05T08:09:11.188Z,-0.80
2023-02-05T08:11:40.682Z,-0.57
2023-02-05T08:14:07.363Z,-0.64
2023-02-05T08:16:34.317Z,-0.66
2023-02-05T08:19:01.128Z,-0.67
2023-02-05T08:21:30.723Z,-0.52
2023-02-05T08:23:58.718Z,-0.71
2023-02-05T08:26:25.472Z,-0.65
2023-02-05T08:28:52.218Z,-0.58
2023-02-05T08:31:19.507Z,-0.56
2023-02-05T08:33:47.909Z,-0.44
2023-02-05T08:36:15.006Z,-0.43
2023-02-05T08:41:12.820Z,-0.35
2023-02-05T08:43:43.750Z,-0.19
2023-02-05T08:46:13.781Z,-0.11
2023-02-05T08:48:41.214Z,0.12
2023-02-05T08:51:10.736Z,-0.01
2023-02-05T08:53:37.447Z,-0.11
2023-02-05T08:56:06.269Z,-0.03
2023-02-05T08:58:34.247Z,-0.17
2023-02-05T09:01:02.921Z,0.07
2023-02-05T09:03:31.164Z,-0.18
2023-02-05T09:05:59.254Z,-0.33
2023-02-05T09:08:27.432Z,-0.11
2023-02-05T09:10:54.581Z,-0.27
2023-02-05T09:13:21.351Z,0.00
2023-02-05T09:15:48.839Z,0.09
2023-02-05T09:18:17.118Z,-0.28
2023-02-05T09:20:46.374Z,-0.40
2023-02-05T09:23:15.153Z,-0.42
2023-02-05T09:25:46.156Z,-0.19
2023-02-05T09:28:14.871Z,-0.02
2023-02-05T09:30:46.798Z,0.02
2023-02-05T09:33:13.875Z,-0.07
2023-02-05T09:35:40.736Z,0.20
2023-02-05T09:38:07.402Z,0.26
2023-02-05T09:40:43.598Z,0.25
2023-02-05T09:43:29.519Z,0.12
2023-02-05T09:46:09.627Z,0.26
2023-02-05T09:48:42.964Z,0.12
2023-02-05T09:51:12.691Z,0.13
2023-02-05T09:53:42.647Z,0.00
2023-02-05T09:56:12.355Z,0.02
2023-02-05T09:58:46.215Z,0.18
2023-02-05T10:01:19.368Z,0.30
2023-02-05T10:03:53.491Z,0.22
2023-02-05T10:06:23.155Z,-0.01
2023-02-05T10:08:49.938Z,0.17
2023-02-05T10:11:32.571Z,0.19
2023-02-05T10:14:18.816Z,0.08
2023-02-05T10:17:07.474Z,0.16
2023-02-05T10:19:43.525Z,0.03
2023-02-05T10:22:22.563Z,0.28
2023-02-05T10:25:14.626Z,0.32
2023-02-05T10:27:43.872Z,0.04
2023-02-05T10:30:26.138Z,-0.03
2023-02-05T10:33:03.937Z,-0.01
2023-02-05T10:35:45.082Z,0.05
2023-02-05T10:38:23.057Z,0.01
2023-02-05T10:40:53.399Z,-0.02
2023-02-05T10:43:43.556Z,0.15
2023-02-05T10:46:14.900Z,0.08
2023-02-05T10:48:43.762Z,0.23
2023-02-05T10:51:33.797Z,0.45
2023-02-05T10:54:01.176Z,0.18
2023-02-05T10:56:28.268Z,0.33
2023-02-05T10:58:58.367Z,0.42
2023-02-05T11:01:33.695Z,0.17
2023-02-05T11:04:07.661Z,0.26
2023-02-05T11:09:24.016Z,0.31
2023-02-05T11:11:55.740Z,0.48
2023-02-05T11:14:35.566Z,0.41
2023-02-05T11:17:20.834Z,0.31
2023-02-05T11:19:56.638Z,0.40
2023-02-05T11:22:39.620Z,0.19
2023-02-05T11:25:22.797Z,0.27
2023-02-05T11:27:53.632Z,0.25
2023-02-05T11:33:23.181Z,0.46
2023-02-05T11:36:08.204Z,0.52
2023-02-05T11:38:43.753Z,0.65
2023-02-05T11:41:13.291Z,0.69
2023-02-05T11:43:51.295Z,0.56
2023-02-05T11:46:24.518Z,0.84
2023-02-05T11:49:02.193Z,0.49
2023-02-05T11:54:15.755Z,0.57
2023-02-05T11:59:22.285Z,0.82
2023-02-05T12:01:49.132Z,0.69
2023-02-05T12:04:19.531Z,0.83
2023-02-05T12:07:06.881Z,0.70
2023-02-05T12:09:33.560Z,0.76
2023-02-05T12:12:21.684Z,0.72
2023-02-05T12:15:02.139Z,0.71
2023-02-05T12:17:40.159Z,0.73
2023-02-05T12:20:12.219Z,0.86
2023-02-05T12:22:43.757Z,0.81
2023-02-05T12:25:13.432Z,0.60
2023-02-05T12:27:44.368Z,0.59
2023-02-05T12:30:31.743Z,0.76
2023-02-05T12:33:10.197Z,0.78
2023-02-05T12:35:43.633Z,0.70
2023-02-05T12:38:16.755Z,0.76
2023-02-05T12:40:48.275Z,0.81
2023-02-05T12:43:24.036Z,0.79
2023-02-05T12:46:17.808Z,0.93
2023-02-05T12:48:47.387Z,0.99
2023-02-05T12:51:43.696Z,0.74
2023-02-05T12:54:35.925Z,0.96
2023-02-05T12:57:08.420Z,0.75
2023-02-05T12:59:43.769Z,1.09
2023-02-05T13:02:37.909Z,1.02
2023-02-05T13:05:23.143Z,1.14
2023-02-05T13:08:08.377Z,0.96
2023-02-05T13:10:42.792Z,0.94
2023-02-05T13:13:17.910Z,0.92
2023-02-05T13:15:49.549Z,0.91
2023-02-05T13:18:26.276Z,0.99
2023-02-05T13:21:19.726Z,0.91
2023-02-05T13:24:06.952Z,0.89
2023-02-05T13:26:43.714Z,0.89
2023-02-05T13:29:14.141Z,1.17
2023-02-05T13:31:43.643Z,1.17
2023-02-05T13:34:15.413Z,0.82
2023-02-05T13:36:42.897Z,0.76
2023-02-05T13:39:43.710Z,0.81
2023-02-05T13:42:39.486Z,0.87
2023-02-05T13:48:20.166Z,0.45
2023-02-05T13:50:47.525Z,0.63
2023-02-05T13:53:43.708Z,0.54
2023-02-05T13:56:39.819Z,0.62
2023-02-05T13:59:20.540Z,0.71
2023-02-05T14:01:57.993Z,0.50
2023-02-05T14:04:46.418Z,0.52
2023-02-05T14:07:24.726Z,0.49
2023-02-05T14:09:57.151Z,0.44
2023-02-05T14:12:43.887Z,0.55
2023-02-05T14:15:16.982Z,0.34
2023-02-05T14:17:52.590Z,0.25
2023-02-05T14:20:25.260Z,0.14
2023-02-05T14:23:01.209Z,0.32
2023-02-05T14:25:44.948Z,0.37
2023-02-05T14:28:17.633Z,0.26
2023-02-05T14:30:59.606Z,0.33
2023-02-05T14:33:37.801Z,0.49
2023-02-05T14:36:25.978Z,0.41
2023-02-05T14:39:27.344Z,0.50
2023-02-05T14:41:58.969Z,0.47
2023-02-05T14:44:31.514Z,0.45
2023-02-05T14:47:04.989Z,0.46
2023-02-05T14:49:34.542Z,0.72
2023-02-05T14:52:23.529Z,0.62
2023-02-05T14:55:05.452Z,0.63
2023-02-05T14:57:42.741Z,0.59
2023-02-05T15:00:21.685Z,0.84
2023-02-05T15:02:51.570Z,0.74
2023-02-05T15:05:40.872Z,0.89
2023-02-05T15:08:21.177Z,0.70
2023-02-05T15:10:50.359Z,0.89
2023-02-05T15:13:19.707Z,0.62
2023-02-05T15:16:11.682Z,0.73
2023-02-05T15:18:44.142Z,0.73
2023-02-05T15:21:39.902Z,0.65
2023-02-05T15:24:15.357Z,0.74
2023-02-05T15:26:42.761Z,0.54
2023-02-05T15:29:13.952Z,0.48
2023-02-05T15:31:44.747Z,0.58
2023-02-05T15:34:33.020Z,0.59
2023-02-05T15:37:10.834Z,0.64
2023-02-05T15:39:43.965Z,0.75
2023-02-05T15:42:18.528Z,0.55
2023-02-05T15:44:45.458Z,0.55
2023-02-05T15:47:24.528Z,0.61
2023-02-05T15:49:58.399Z,0.45
2023-02-05T15:52:28.081Z,0.36
2023-02-05T15:54:57.242Z,0.33
2023-02-05T15:57:29.830Z,0.53
2023-02-05T15:59:59.907Z,0.52
2023-02-05T16:02:31.088Z,0.41
2023-02-05T16:05:07.653Z,0.54
2023-02-05T16:10:16.539Z,0.45
2023-02-05T16:13:07.457Z,0.51
2023-02-05T16:15:44.233Z,0.44
2023-02-05T16:18:43.718Z,0.44
2023-02-05T16:21:25.854Z,0.46
2023-02-05T16:23:58.061Z,0.42
2023-02-05T16:29:47.676Z,0.30
2023-02-05T16:32:28.372Z,0.43
2023-02-05T16:34:55.518Z,0.34
2023-02-05T16:37:27.496Z,0.30
2023-02-05T16:39:55.971Z,0.47
2023-02-05T16:42:39.628Z,0.45
2023-02-05T16:45:09.337Z,0.37
2023-02-05T16:47:36.993Z,0.39
2023-02-05T16:50:39.965Z,0.32
2023-02-05T16:53:37.891Z,0.40
2023-02-05T16:56:36.129Z,0.38
2023-02-05T16:59:05.559Z,0.40
2023-02-05T17:01:44.200Z,0.36
2023-02-05T17:04:31.710Z,0.34
2023-02-05T17:07:01.141Z,0.40
2023-02-05T17:09:39.801Z,0.28
2023-02-05T17:12:27.209Z,0.41
2023-02-05T17:15:16.076Z,0.41
2023-02-05T17:17:44.997Z,0.39
2023-02-05T17:20:17.845Z,0.20
2023-02-05T17:23:05.816Z,0.30
2023-02-05T17:25:36.992Z,0.25
2023-02-05T17:28:08.281Z,0.41
2023-02-05T17:30:35.351Z,0.26
2023-02-05T17:33:07.075Z,0.32
2023-02-05T17:35:34.130Z,0.30
2023-02-05T17:38:01.171Z,0.24
2023-02-05T17:40:28.303Z,0.24
2023-02-05T17:42:56.220Z,0.21
2023-02-05T17:45:30.968Z,0.29
2023-02-05T17:47:57.654Z,0.19
2023-02-05T17:50:24.865Z,0.22
2023-02-05T17:52:52.802Z,0.14
2023-02-05T17:55:23.448Z,0.25
2023-02-05T17:57:50.261Z,0.23
2023-02-05T18:00:21.534Z,0.34
2023-02-05T18:02:48.407Z,0.26
2023-02-05T18:05:19.237Z,0.24
2023-02-05T18:07:54.472Z,0.36
2023-02-05T18:10:28.294Z,0.20
2023-02-05T18:12:57.231Z,0.23
2023-02-05T18:15:25.357Z,0.20
2023-02-05T18:17:52.962Z,0.39
2023-02-05T18:20:23.403Z,0.36
2023-02-05T18:22:50.509Z,0.29
2023-02-05T18:25:18.946Z,0.34
2023-02-05T18:27:48.224Z,0.34
2023-02-05T18:30:24.377Z,0.30
2023-02-05T18:32:51.933Z,0.33
2023-02-05T18:35:18.840Z,0.30
2023-02-05T18:37:45.494Z,0.29
2023-02-05T18:40:14.820Z,0.23
2023-02-05T18:45:09.078Z,0.34
2023-02-05T18:47:36.242Z,0.27
2023-02-05T18:50:02.997Z,0.27
2023-02-05T18:52:30.650Z,0.33
2023-02-05T18:54:57.825Z,0.32
2023-02-05T18:57:24.579Z,0.26
2023-02-05T18:59:51.388Z,0.40
2023-02-05T19:02:18.113Z,0.46
2023-02-05T19:04:46.095Z,0.42
2023-02-05T19:07:12.878Z,0.34
2023-02-05T19:09:39.702Z,0.29
2023-02-05T19:12:06.675Z,0.27
2023-02-05T19:14:34.178Z,0.28
2023-02-05T19:17:01.351Z,0.37
2023-02-05T19:19:30.046Z,0.37
2023-02-05T19:22:09.306Z,0.39
2023-02-05T19:24:37.557Z,0.41
2023-02-05T19:27:04.676Z,0.51
2023-02-05T19:29:39.783Z,0.45
2023-02-05T19:32:08.011Z,0.43
2023-02-05T19:34:38.959Z,0.34
2023-02-05T19:37:11.855Z,0.31
2023-02-05T19:39:39.266Z,0.40
2023-02-05T19:42:09.287Z,0.34
2023-02-05T19:44:39.431Z,0.48
2023-02-05T19:47:06.560Z,0.37
2023-02-05T19:49:38.881Z,0.26
2023-02-05T19:52:10.062Z,0.28
2023-02-05T19:54:37.010Z,0.31
2023-02-05T19:57:04.080Z,0.28
2023-02-05T19:59:30.823Z,0.23
2023-02-05T20:01:58.076Z,0.21
2023-02-05T20:04:29.063Z,0.38
2023-02-05T20:07:00.593Z,0.30
2023-02-05T20:09:28.352Z,0.30
2023-02-05T20:11:56.037Z,0.26
2023-02-05T20:14:24.010Z,0.33
2023-02-05T20:16:52.380Z,0.18
2023-02-05T20:19:27.691Z,0.17
2023-02-05T20:21:56.982Z,0.20
2023-02-05T20:24:24.392Z,0.25
2023-02-05T20:26:53.145Z,0.31
2023-02-05T20:32:11.810Z,0.29
2023-02-05T20:37:09.828Z,0.33
2023-02-05T20:39:39.808Z,0.37
2023-02-05T20:42:15.817Z,0.28
2023-02-05T20:44:44.045Z,0.30
2023-02-05T20:47:14.022Z,0.29
2023-02-05T20:52:09.947Z,0.41
2023-02-05T20:54:37.031Z,0.27
2023-02-05T20:57:04.699Z,0.32
2023-02-05T20:59:34.668Z,0.35
2023-02-05T21:02:02.716Z,0.22
2023-02-05T21:04:30.249Z,0.25
2023-02-05T21:06:58.597Z,0.37
2023-02-05T21:09:25.805Z,0.29
2023-02-05T21:11:55.757Z,0.31
2023-02-05T21:14:23.396Z,0.28
2023-02-05T21:16:50.367Z,0.23
2023-02-05T21:19:18.692Z,0.27
2023-02-05T21:21:46.175Z,0.30
2023-02-05T21:24:14.892Z,0.39
2023-02-05T21:26:43.956Z,0.34
2023-02-05T21:29:16.926Z,0.22
2023-02-05T21:31:49.564Z,0.25
2023-02-05T21:34:19.695Z,0.35
2023-02-05T21:36:48.378Z,0.37
2023-02-05T21:39:20.299Z,0.42
2023-02-05T21:41:47.960Z,0.40
2023-02-05T21:44:21.885Z,0.36
2023-02-05T21:46:48.637Z,0.40
2023-02-05T21:49:15.648Z,0.48
2023-02-05T21:54:09.074Z,0.36
2023-02-05T21:56:38.485Z,0.42
2023-02-05T21:59:05.476Z,0.59
2023-02-05T22:01:34.585Z,0.47
2023-02-05T22:04:08.444Z,0.47
2023-02-05T22:06:36.269Z,0.36
2023-02-05T22:09:11.923Z,0.50
2023-02-05T22:11:39.583Z,0.43
2023-02-05T22:14:06.862Z,0.54
2023-02-05T22:16:35.848Z,0.43
2023-02-05T22:19:04.296Z,0.45
2023-02-05T22:21:35.058Z,0.57
2023-02-05T22:24:03.220Z,0.55
2023-02-05T22:26:36.886Z,0.46
2023-02-05T22:29:06.329Z,0.54
2023-02-05T22:31:33.574Z,0.51
2023-02-05T22:34:00.571Z,0.42
2023-02-05T22:36:30.590Z,0.53
2023-02-05T22:38:58.135Z,0.50
2023-02-05T22:41:27.627Z,0.40
2023-02-05T22:43:56.236Z,0.57
2023-02-05T22:46:25.783Z,0.47
2023-02-05T22:48:54.158Z,0.34
2023-02-05T22:51:25.451Z,0.54
2023-02-05T22:53:53.467Z,0.54
2023-02-05T22:56:20.219Z,0.55
2023-02-05T22:58:48.101Z,0.56
2023-02-05T23:01:16.789Z,0.59
2023-02-05T23:03:44.085Z,0.66
2023-02-05T23:06:12.510Z,0.66
2023-02-05T23:08:39.887Z,0.66
2023-02-05T23:11:09.112Z,0.61
2023-02-05T23:16:46.378Z,0.72
2023-02-05T23:19:19.757Z,0.81
2023-02-05T23:21:47.950Z,0.81
2023-02-05T23:24:15.504Z,0.72
2023-02-05T23:26:45.071Z,0.69
2023-02-05T23:29:14.278Z,0.66
2023-02-05T23:31:41.351Z,0.65
2023-02-05T23:34:08.350Z,0.67
2023-02-05T23:36:35.436Z,0.72
2023-02-05T23:39:02.191Z,0.74
2023-02-05T23:41:37.909Z,0.73
2023-02-05T23:44:08.044Z,0.70
2023-02-05T23:46:35.643Z,0.69
2023-02-05T23:49:02.820Z,0.70
2023-02-05T23:51:29.577Z,0.73
2023-02-05T23:53:56.430Z,0.93
2023-02-05T23:56:23.395Z,0.67
2023-02-05T23:58:50.177Z,0.61
